createdAt,value
2022-08-17T00:01:26.307Z,99748.69
2022-08-17T00:03:54.434Z,99759.72
2022-08-17T00:06:27.592Z,99756.00
2022-08-17T00:09:00.716Z,99760.56
2022-08-17T00:11:30.699Z,99764.09
2022-08-17T00:14:05.146Z,99766.25
2022-08-17T00:16:56.667Z,99753.50
2022-08-17T00:19:24.640Z,99760.59
2022-08-17T00:22:34.559Z,99756.56
2022-08-17T00:24:39.829Z,99758.88
2022-08-17T00:27:06.364Z,99761.34
2022-08-17T00:29:32.893Z,99741.34
2022-08-17T00:32:01.252Z,99754.47
2022-08-17T00:34:47.881Z,99752.81
2022-08-17T00:37:14.418Z,99753.13
2022-08-17T00:39:41.348Z,99733.13
2022-08-17T00:42:19.108Z,99727.75
2022-08-17T00:44:46.090Z,99754.13
2022-08-17T00:47:12.692Z,99749.13
2022-08-17T00:49:39.514Z,99756.97
2022-08-17T00:52:15.442Z,99723.81
2022-08-17T00:54:44.782Z,99757.03
2022-08-17T00:57:18.242Z,99760.72
2022-08-17T00:59:56.058Z,99754.34
2022-08-17T01:02:42.532Z,99722.56
2022-08-17T01:05:17.166Z,99734.19
2022-08-17T01:07:47.961Z,99751.47
2022-08-17T01:11:00.423Z,99747.31
2022-08-17T01:13:04.378Z,99748.78
2022-08-17T01:15:35.388Z,99752.63
2022-08-17T01:18:02.583Z,99755.19
2022-08-17T01:20:29.626Z,99753.34
2022-08-17T01:22:56.205Z,99755.00
2022-08-17T01:25:22.886Z,99758.72
2022-08-17T01:27:50.082Z,99750.00
2022-08-17T01:30:56.741Z,99758.09
2022-08-17T01:33:04.380Z,99754.69
2022-08-17T01:35:30.983Z,99741.19
2022-08-17T01:37:57.524Z,99743.88
2022-08-17T01:40:46.480Z,99771.53
2022-08-17T01:43:21.624Z,99769.38
2022-08-17T01:46:03.369Z,99749.63
2022-08-17T01:48:38.574Z,99764.50
2022-08-17T01:51:07.226Z,99762.94
2022-08-17T01:53:41.494Z,99769.16
2022-08-17T01:56:11.174Z,99761.50
2022-08-17T01:58:39.477Z,99756.97
2022-08-17T02:01:07.223Z,99747.69
2022-08-17T02:03:35.781Z,99745.69
2022-08-17T02:06:03.415Z,99748.22
2022-08-17T02:08:38.804Z,99723.38
2022-08-17T02:11:11.552Z,99741.69
2022-08-17T02:13:39.220Z,99725.22
2022-08-17T02:16:06.263Z,99732.69
2022-08-17T02:18:33.028Z,99739.84
2022-08-17T02:20:59.970Z,99736.78
2022-08-17T02:23:30.580Z,99738.78
2022-08-17T02:25:59.618Z,99743.88
2022-08-17T02:28:26.660Z,99749.53
2022-08-17T02:31:01.640Z,99743.03
2022-08-17T02:33:41.784Z,99742.50
2022-08-17T02:36:11.427Z,99743.09
2022-08-17T02:38:39.449Z,99741.56
2022-08-17T02:41:06.170Z,99750.47
2022-08-17T02:43:32.951Z,99742.84
2022-08-17T02:45:59.555Z,99747.91
2022-08-17T02:48:31.157Z,99738.59
2022-08-17T02:50:58.857Z,99742.47
2022-08-17T02:53:25.627Z,99741.13
2022-08-17T02:55:53.196Z,99725.22
2022-08-17T02:58:34.549Z,99749.75
2022-08-17T03:01:03.462Z,99752.19
2022-08-17T03:03:30.116Z,99736.25
2022-08-17T03:05:56.896Z,99759.56
2022-08-17T03:08:23.862Z,99760.25
2022-08-17T03:10:50.601Z,99756.19
2022-08-17T03:13:17.597Z,99750.59
2022-08-17T03:15:45.460Z,99765.38
2022-08-17T03:18:24.088Z,99761.03
2022-08-17T03:20:53.235Z,99766.41
2022-08-17T03:23:24.038Z,99765.56
2022-08-17T03:25:52.962Z,99749.06
2022-08-17T03:28:20.869Z,99773.25
2022-08-17T03:30:47.385Z,99745.13
2022-08-17T03:33:14.773Z,99761.66
2022-08-17T03:35:42.076Z,99751.75
2022-08-17T03:38:10.417Z,99768.47
2022-08-17T03:40:57.891Z,99737.63
2022-08-17T03:43:24.795Z,99757.56
2022-08-17T03:46:24.006Z,99761.22
2022-08-17T03:49:17.084Z,99749.53
2022-08-17T03:52:02.020Z,99761.09
2022-08-17T03:54:47.219Z,99760.56
2022-08-17T03:57:13.991Z,99761.94
2022-08-17T03:59:41.145Z,99769.00
2022-08-17T04:02:15.939Z,99764.34
2022-08-17T04:04:42.743Z,99752.50
2022-08-17T04:07:09.485Z,99734.66
2022-08-17T04:09:36.659Z,99757.56
2022-08-17T04:12:05.186Z,99748.09
2022-08-17T04:14:36.483Z,99749.66
2022-08-17T04:17:19.796Z,99739.06
2022-08-17T04:19:46.710Z,99742.59
2022-08-17T04:22:30.205Z,99747.81
2022-08-17T04:25:07.515Z,99757.13
2022-08-17T04:27:34.284Z,99731.72
2022-08-17T04:30:01.645Z,99743.28
2022-08-17T04:33:05.050Z,99753.75
2022-08-17T04:35:21.734Z,99761.50
2022-08-17T04:37:48.574Z,99745.25
2022-08-17T04:40:33.866Z,99751.66
2022-08-17T04:43:02.783Z,99751.66
2022-08-17T04:45:31.986Z,99754.03
2022-08-17T04:48:01.092Z,99768.72
2022-08-17T04:50:27.834Z,99750.91
2022-08-17T04:52:54.606Z,99757.97
2022-08-17T04:55:21.586Z,99769.41
2022-08-17T04:57:48.236Z,99770.25
2022-08-17T05:00:15.170Z,99777.88
2022-08-17T05:02:50.615Z,99757.69
2022-08-17T05:05:30.642Z,99784.25
2022-08-17T05:08:00.012Z,99776.31
2022-08-17T05:10:29.364Z,99788.19
2022-08-17T05:13:01.105Z,99793.94
2022-08-17T05:15:29.333Z,99790.00
2022-08-17T05:17:59.910Z,99766.41
2022-08-17T05:20:27.022Z,99772.31
2022-08-17T05:23:01.076Z,99786.25
2022-08-17T05:25:32.799Z,99791.19
2022-08-17T05:28:04.878Z,99793.56
2022-08-17T05:30:33.982Z,99796.94
2022-08-17T05:33:02.379Z,99789.69
2022-08-17T05:35:32.049Z,99777.03
2022-08-17T05:37:58.996Z,99802.94
2022-08-17T05:40:25.985Z,99800.41
2022-08-17T05:43:04.658Z,99793.25
2022-08-17T05:45:54.668Z,99786.34
2022-08-17T05:48:19.547Z,99795.34
2022-08-17T05:51:01.139Z,99781.66
2022-08-17T05:53:50.884Z,99799.38
2022-08-17T05:56:52.954Z,99797.34
2022-08-17T05:59:39.484Z,99802.56
2022-08-17T06:02:42.031Z,99804.66
2022-08-17T06:05:18.239Z,99772.59
2022-08-17T06:07:49.801Z,99778.19
2022-08-17T06:10:32.427Z,99780.19
2022-08-17T06:13:04.121Z,99783.25
2022-08-17T06:15:48.617Z,99745.50
2022-08-17T06:18:19.219Z,99783.00
2022-08-17T06:20:51.837Z,99760.44
2022-08-17T06:23:29.495Z,99767.47
2022-08-17T06:26:03.748Z,99790.47
2022-08-17T06:28:47.053Z,99784.84
2022-08-17T06:31:22.602Z,99787.28
2022-08-17T06:33:50.303Z,99779.78
2022-08-17T06:37:09.358Z,99791.81
2022-08-17T06:39:51.074Z,99793.34
2022-08-17T06:42:55.009Z,99773.41
2022-08-17T06:45:42.006Z,99790.13
2022-08-17T06:48:36.250Z,99807.50
2022-08-17T06:51:13.384Z,99812.72
2022-08-17T06:53:52.542Z,99825.56
2022-08-17T06:56:53.207Z,99824.78
2022-08-17T06:59:25.093Z,99823.19
2022-08-17T07:01:53.092Z,99811.22
2022-08-17T07:04:24.295Z,99804.13
2022-08-17T07:06:59.182Z,99812.56
2022-08-17T07:09:31.315Z,99813.53
2022-08-17T07:12:20.524Z,99791.88
2022-08-17T07:14:59.633Z,99819.56
2022-08-17T07:17:46.894Z,99809.44
2022-08-17T07:20:22.536Z,99811.09
2022-08-17T07:22:59.586Z,99819.22
2022-08-17T07:25:27.575Z,99807.13
2022-08-17T07:27:59.817Z,99811.69
2022-08-17T07:31:00.787Z,99809.03
2022-08-17T07:33:33.590Z,99800.56
2022-08-17T07:36:00.307Z,99772.03
2022-08-17T07:38:33.283Z,99789.47
2022-08-17T07:41:06.496Z,99789.66
2022-08-17T07:43:41.922Z,99813.97
2022-08-17T07:46:30.238Z,99817.53
2022-08-17T07:49:25.097Z,99818.38
2022-08-17T07:51:51.640Z,99832.91
2022-08-17T07:54:37.375Z,99823.75
2022-08-17T07:57:13.216Z,99834.22
2022-08-17T08:00:03.845Z,99834.53
2022-08-17T08:02:34.203Z,99826.44
2022-08-17T08:05:03.323Z,99839.97
2022-08-17T08:07:50.423Z,99840.47
2022-08-17T08:10:38.956Z,99835.56
2022-08-17T08:13:20.681Z,99853.16
2022-08-17T08:15:53.644Z,99838.28
2022-08-17T08:18:53.538Z,99835.94
2022-08-17T08:21:31.619Z,99831.06
2022-08-17T08:24:36.776Z,99826.50
2022-08-17T08:27:11.569Z,99837.81
2022-08-17T08:29:44.236Z,99841.84
2022-08-17T08:32:45.350Z,99844.38
2022-08-17T08:35:44.400Z,99844.69
2022-08-17T08:38:23.747Z,99835.09
2022-08-17T08:41:12.822Z,99875.34
2022-08-17T08:43:50.871Z,99882.25
2022-08-17T08:46:55.233Z,99859.41
2022-08-17T08:49:59.536Z,99880.06
2022-08-17T08:52:35.643Z,99883.72
2022-08-17T08:55:35.614Z,99886.75
2022-08-17T08:58:31.759Z,99890.56
2022-08-17T09:01:08.905Z,99891.09
2022-08-17T09:04:25.600Z,99883.28
2022-08-17T09:07:15.960Z,99878.31
2022-08-17T09:10:13.624Z,99891.56
2022-08-17T09:13:10.295Z,99889.34
2022-08-17T09:15:57.331Z,99857.25
2022-08-17T09:18:59.842Z,99869.13
2022-08-17T09:21:48.198Z,99876.56
2022-08-17T09:24:44.242Z,99867.06
2022-08-17T09:27:16.443Z,99871.50
2022-08-17T09:29:48.761Z,99877.50
2022-08-17T09:32:22.372Z,99872.16
2022-08-17T09:34:57.251Z,99881.47
2022-08-17T09:37:35.707Z,99875.59
2022-08-17T09:40:24.554Z,99879.03
2022-08-17T09:43:03.781Z,99877.19
2022-08-17T09:45:50.753Z,99869.56
2022-08-17T09:48:28.827Z,99877.47
2022-08-17T09:51:15.786Z,99878.19
2022-08-17T09:53:44.788Z,99862.22
2022-08-17T09:56:56.528Z,99894.31
2022-08-17T09:59:49.200Z,99867.72
2022-08-17T10:02:50.569Z,99888.50
2022-08-17T10:05:45.447Z,99891.38
2022-08-17T10:08:32.633Z,99871.13
2022-08-17T10:11:11.963Z,99879.94
2022-08-17T10:13:59.760Z,99894.16
2022-08-17T10:16:45.479Z,99883.50
2022-08-17T10:19:44.125Z,99887.81
2022-08-17T10:23:06.233Z,99888.13
2022-08-17T10:25:55.882Z,99902.34
2022-08-17T10:28:29.807Z,99874.44
2022-08-17T10:33:59.140Z,99882.78
2022-08-17T10:37:05.808Z,99896.91
2022-08-17T10:39:51.892Z,99917.19
2022-08-17T10:42:32.427Z,99916.22
2022-08-17T10:45:06.708Z,99894.25
2022-08-17T10:48:05.287Z,99907.41
2022-08-17T10:51:08.746Z,99902.66
2022-08-17T10:53:35.247Z,99907.50
2022-08-17T10:56:14.149Z,99917.63
2022-08-17T10:58:58.809Z,99928.31
2022-08-17T11:01:34.342Z,99923.19
2022-08-17T11:04:30.217Z,99920.56
2022-08-17T11:07:25.710Z,99902.19
2022-08-17T11:10:24.357Z,99923.25
2022-08-17T11:13:28.154Z,99933.56
2022-08-17T11:16:28.584Z,99918.34
2022-08-17T11:19:17.034Z,99932.34
2022-08-17T11:21:55.745Z,99934.25
2022-08-17T11:24:35.219Z,99955.38
2022-08-17T11:27:22.349Z,99949.38
2022-08-17T11:32:32.229Z,99944.00
2022-08-17T11:35:07.568Z,99930.47
2022-08-17T11:38:14.073Z,99926.22
2022-08-17T11:41:01.464Z,99929.13
2022-08-17T11:43:37.388Z,99928.06
2022-08-17T11:46:15.137Z,99922.69
2022-08-17T11:49:16.744Z,99901.81
2022-08-17T11:52:01.790Z,99928.31
2022-08-17T11:54:33.864Z,99909.38
2022-08-17T11:57:26.030Z,99939.84
2022-08-17T12:00:09.208Z,99940.59
2022-08-17T12:02:48.133Z,99930.06
2022-08-17T12:05:17.947Z,99927.31
2022-08-17T12:07:53.875Z,99934.47
2022-08-17T12:10:31.958Z,99900.53
2022-08-17T12:13:02.296Z,99925.63
2022-08-17T12:15:40.663Z,99913.34
2022-08-17T12:18:07.273Z,99919.50
2022-08-17T12:20:45.105Z,99911.91
2022-08-17T12:23:41.900Z,99908.19
2022-08-17T12:26:17.358Z,99913.47
2022-08-17T12:28:46.745Z,99915.78
2022-08-17T12:31:20.238Z,99910.31
2022-08-17T12:33:48.065Z,99912.25
2022-08-17T12:36:17.197Z,99909.13
2022-08-17T12:39:12.889Z,99901.56
2022-08-17T12:41:47.134Z,99902.59
2022-08-17T12:44:19.980Z,99898.59
2022-08-17T12:46:58.982Z,99896.91
2022-08-17T12:49:30.691Z,99907.81
2022-08-17T12:52:04.915Z,99899.91
2022-08-17T12:54:51.010Z,99877.69
2022-08-17T12:57:22.982Z,99884.63
2022-08-17T12:59:54.058Z,99902.13
2022-08-17T13:02:28.803Z,99864.06
2022-08-17T13:04:58.910Z,99907.31
2022-08-17T13:07:32.294Z,99882.16
2022-08-17T13:09:58.923Z,99895.97
2022-08-17T13:12:30.946Z,99883.59
2022-08-17T13:14:59.437Z,99857.66
2022-08-17T13:17:36.069Z,99889.91
2022-08-17T13:20:13.353Z,99887.81
2022-08-17T13:22:40.229Z,99876.47
2022-08-17T13:25:15.951Z,99864.94
2022-08-17T13:27:43.373Z,99836.22
2022-08-17T13:30:12.343Z,99859.16
2022-08-17T13:32:46.451Z,99851.44
2022-08-17T13:35:39.305Z,99835.06
2022-08-17T13:38:09.500Z,99843.47
2022-08-17T13:40:49.204Z,99843.41
2022-08-17T13:43:39.525Z,99847.97
2022-08-17T13:46:12.373Z,99832.28
2022-08-17T13:48:40.187Z,99848.13
2022-08-17T13:51:14.228Z,99850.63
2022-08-17T13:53:40.762Z,99844.34
2022-08-17T13:56:37.787Z,99833.53
2022-08-17T13:59:11.532Z,99832.97
2022-08-17T14:01:47.483Z,99834.28
2022-08-17T14:04:28.018Z,99828.09
2022-08-17T14:07:11.563Z,99818.34
2022-08-17T14:09:43.304Z,99836.03
2022-08-17T14:12:12.630Z,99831.81
2022-08-17T14:14:39.685Z,99824.47
2022-08-17T14:17:07.858Z,99801.16
2022-08-17T14:19:34.954Z,99813.16
2022-08-17T14:22:02.150Z,99808.75
2022-08-17T14:24:35.280Z,99791.53
2022-08-17T14:27:03.653Z,99811.06
2022-08-17T14:29:32.279Z,99812.53
2022-08-17T14:32:05.018Z,99805.81
2022-08-17T14:34:31.575Z,99802.88
2022-08-17T14:36:58.577Z,99799.53
2022-08-17T14:39:25.290Z,99785.25
2022-08-17T14:41:53.005Z,99800.38
2022-08-17T14:44:19.608Z,99790.06
2022-08-17T14:46:46.168Z,99780.00
2022-08-17T14:49:13.363Z,99793.66
2022-08-17T14:51:43.676Z,99793.03
2022-08-17T14:54:33.461Z,99787.75
2022-08-17T14:57:02.887Z,99783.78
2022-08-17T14:59:47.296Z,99785.25
2022-08-17T15:02:17.345Z,99782.53
2022-08-17T15:04:45.916Z,99786.94
2022-08-17T15:07:12.462Z,99784.38
2022-08-17T15:09:39.188Z,99778.94
2022-08-17T15:12:09.071Z,99767.19
2022-08-17T15:14:36.229Z,99774.97
2022-08-17T15:17:03.726Z,99764.69
2022-08-17T15:19:30.265Z,99781.06
2022-08-17T15:21:56.854Z,99773.28
2022-08-17T15:24:23.604Z,99769.91
2022-08-17T15:26:51.387Z,99770.97
2022-08-17T15:29:17.958Z,99770.13
2022-08-17T15:31:44.953Z,99773.47
2022-08-17T15:34:11.935Z,99764.25
2022-08-17T15:36:38.924Z,99768.66
2022-08-17T15:39:15.610Z,99746.38
2022-08-17T15:41:47.290Z,99757.31
2022-08-17T15:44:32.630Z,99768.44
2022-08-17T15:47:01.996Z,99765.50
2022-08-17T15:49:28.781Z,99767.63
2022-08-17T15:51:55.653Z,99765.53
2022-08-17T15:54:23.379Z,99738.59
2022-08-17T15:56:50.623Z,99759.03
2022-08-17T15:59:17.176Z,99747.00
2022-08-17T16:03:01.655Z,99755.84
2022-08-17T16:04:31.895Z,99750.16
2022-08-17T16:06:59.931Z,99752.91
2022-08-17T16:09:26.996Z,99725.63
2022-08-17T16:11:56.291Z,99751.41
2022-08-17T16:14:24.555Z,99741.56
2022-08-17T16:17:00.681Z,99748.25
2022-08-17T16:19:27.307Z,99748.66
2022-08-17T16:21:53.840Z,99744.91
2022-08-17T16:24:20.601Z,99752.91
2022-08-17T16:26:47.157Z,99733.38
2022-08-17T16:29:14.105Z,99743.69
2022-08-17T16:31:41.945Z,99725.63
2022-08-17T16:34:18.000Z,99729.00
2022-08-17T16:36:55.519Z,99734.88
2022-08-17T16:39:25.493Z,99733.81
2022-08-17T16:41:52.115Z,99734.69
2022-08-17T16:44:20.874Z,99738.88
2022-08-17T16:46:50.267Z,99727.50
2022-08-17T16:49:35.773Z,99743.69
2022-08-17T16:52:04.035Z,99752.06
2022-08-17T16:54:30.683Z,99750.41
2022-08-17T16:56:57.378Z,99745.38
2022-08-17T16:59:30.978Z,99742.44
2022-08-17T17:02:04.871Z,99745.16
2022-08-17T17:04:35.125Z,99725.41
2022-08-17T17:07:16.986Z,99742.84
2022-08-17T17:09:47.532Z,99734.69
2022-08-17T17:12:18.518Z,99749.34
2022-08-17T17:14:48.149Z,99748.75
2022-08-17T17:17:29.578Z,99749.75
2022-08-17T17:20:09.913Z,99738.81
2022-08-17T17:22:48.126Z,99734.44
2022-08-17T17:25:33.270Z,99734.22
2022-08-17T17:28:15.250Z,99728.34
2022-08-17T17:31:05.717Z,99714.47
2022-08-17T17:33:40.485Z,99724.72
2022-08-17T17:36:33.735Z,99733.97
2022-08-17T17:39:06.363Z,99732.69
2022-08-17T17:41:42.014Z,99735.09
2022-08-17T17:44:15.324Z,99706.34
2022-08-17T17:46:52.092Z,99733.59
2022-08-17T17:49:20.205Z,99724.97
2022-08-17T17:52:23.201Z,99731.25
2022-08-17T17:55:31.529Z,99724.94
2022-08-17T17:58:17.949Z,99708.94
2022-08-17T18:00:51.363Z,99714.97
2022-08-17T18:03:31.232Z,99730.28
2022-08-17T18:06:03.578Z,99734.00
2022-08-17T18:08:54.793Z,99733.31
2022-08-17T18:11:35.398Z,99742.28
2022-08-17T18:14:33.257Z,99749.78
2022-08-17T18:17:00.697Z,99734.28
2022-08-17T18:19:30.163Z,99740.91
2022-08-17T18:22:06.677Z,99735.81
2022-08-17T18:24:37.997Z,99742.25
2022-08-17T18:27:23.727Z,99743.59
2022-08-17T18:29:53.584Z,99742.88
2022-08-17T18:32:31.855Z,99734.88
2022-08-17T18:35:18.367Z,99731.25
2022-08-17T18:37:47.534Z,99746.28
2022-08-17T18:40:17.240Z,99749.97
2022-08-17T18:43:04.292Z,99725.94
2022-08-17T18:45:41.180Z,99730.09
2022-08-17T18:48:20.463Z,99755.00
2022-08-17T18:50:47.245Z,99742.28
2022-08-17T18:53:21.023Z,99761.75
2022-08-17T18:56:13.703Z,99770.47
2022-08-17T18:58:40.382Z,99771.44
2022-08-17T19:01:18.782Z,99763.34
2022-08-17T19:03:46.094Z,99773.53
2022-08-17T19:06:28.363Z,99771.09
2022-08-17T19:08:55.027Z,99777.78
2022-08-17T19:11:30.251Z,99764.19
2022-08-17T19:14:16.772Z,99787.03
2022-08-17T19:16:55.244Z,99776.53
2022-08-17T19:19:38.102Z,99789.63
2022-08-17T19:22:28.905Z,99792.06
2022-08-17T19:25:05.989Z,99789.72
2022-08-17T19:27:57.307Z,99793.47
2022-08-17T19:30:24.681Z,99778.38
2022-08-17T19:32:51.504Z,99792.53
2022-08-17T19:35:20.313Z,99789.16
2022-08-17T19:38:18.365Z,99781.09
2022-08-17T19:41:05.129Z,99797.00
2022-08-17T19:43:48.084Z,99804.69
2022-08-17T19:46:49.886Z,99805.06
2022-08-17T19:49:33.273Z,99820.69
2022-08-17T19:52:38.860Z,99806.34
2022-08-17T19:55:18.307Z,99808.22
2022-08-17T19:58:19.177Z,99805.41
2022-08-17T20:00:50.671Z,99797.69
2022-08-17T20:03:41.663Z,99819.13
2022-08-17T20:06:13.731Z,99810.34
2022-08-17T20:09:12.936Z,99808.38
2022-08-17T20:11:54.794Z,99810.28
2022-08-17T20:14:53.819Z,99807.94
2022-08-17T20:17:28.129Z,99822.22
2022-08-17T20:20:27.853Z,99815.84
2022-08-17T20:23:07.716Z,99807.22
2022-08-17T20:26:02.830Z,99811.34
2022-08-17T20:28:35.007Z,99786.03
2022-08-17T20:31:05.957Z,99814.56
2022-08-17T20:33:38.758Z,99809.00
2022-08-17T20:36:11.510Z,99808.56
2022-08-17T20:38:49.489Z,99814.66
2022-08-17T20:41:34.357Z,99797.59
2022-08-17T20:44:04.776Z,99805.22
2022-08-17T20:46:40.520Z,99806.47
2022-08-17T20:49:27.115Z,99785.44
2022-08-17T20:52:02.550Z,99799.63
2022-08-17T20:54:47.769Z,99782.44
2022-08-17T20:57:32.515Z,99805.78
2022-08-17T21:00:06.335Z,99804.59
2022-08-17T21:02:33.128Z,99782.47
2022-08-17T21:05:05.501Z,99801.75
2022-08-17T21:07:53.934Z,99805.31
2022-08-17T21:10:23.654Z,99792.84
2022-08-17T21:13:08.468Z,99800.78
2022-08-17T21:16:12.864Z,99822.06
2022-08-17T21:19:01.062Z,99834.06
2022-08-17T21:21:41.566Z,99829.88
2022-08-17T21:24:34.917Z,99828.53
2022-08-17T21:27:23.462Z,99832.56
2022-08-17T21:30:14.836Z,99834.94
2022-08-17T21:32:43.495Z,99828.03
2022-08-17T21:35:19.333Z,99836.81
2022-08-17T21:37:48.292Z,99840.69
2022-08-17T21:40:18.327Z,99835.78
2022-08-17T21:42:47.707Z,99841.19
2022-08-17T21:45:29.308Z,99826.47
2022-08-17T21:48:09.081Z,99854.03
2022-08-17T21:50:36.057Z,99847.25
2022-08-17T21:53:04.065Z,99843.03
2022-08-17T21:55:34.051Z,99846.06
2022-08-17T21:58:13.800Z,99842.38
2022-08-17T22:00:44.411Z,99857.38
2022-08-17T22:03:23.869Z,99828.16
2022-08-17T22:05:51.559Z,99861.75
2022-08-17T22:08:22.367Z,99862.44
2022-08-17T22:10:51.189Z,99854.16
2022-08-17T22:13:17.844Z,99848.41
2022-08-17T22:16:29.083Z,99843.69
2022-08-17T22:18:54.046Z,99841.47
2022-08-17T22:21:22.568Z,99826.44
2022-08-17T22:24:06.378Z,99835.75
2022-08-17T22:26:59.709Z,99841.81
2022-08-17T22:29:47.075Z,99842.69
2022-08-17T22:32:34.441Z,99831.16
2022-08-17T22:35:34.525Z,99836.56
2022-08-17T22:38:19.125Z,99872.06
2022-08-17T22:40:49.731Z,99884.72
2022-08-17T22:43:21.325Z,99850.22
2022-08-17T22:45:55.416Z,99871.72
2022-08-17T22:48:28.346Z,99874.41
2022-08-17T22:51:12.368Z,99875.09
2022-08-17T22:54:05.247Z,99858.00
2022-08-17T22:56:50.905Z,99839.75
2022-08-17T22:59:43.797Z,99878.63
2022-08-17T23:02:21.167Z,99880.50
2022-08-17T23:04:51.908Z,99883.34
2022-08-17T23:07:23.006Z,99882.50
2022-08-17T23:09:51.570Z,99860.88
2022-08-17T23:12:24.472Z,99886.22
2022-08-17T23:14:57.363Z,99892.47
2022-08-17T23:17:24.467Z,99893.81
2022-08-17T23:19:51.051Z,99891.94
2022-08-17T23:22:17.623Z,99894.28
2022-08-17T23:24:48.894Z,99895.13
2022-08-17T23:27:15.637Z,99891.94
2022-08-17T23:29:42.288Z,99896.66
2022-08-17T23:32:15.074Z,99892.94
2022-08-17T23:34:43.824Z,99900.38
2022-08-17T23:37:11.883Z,99895.28
2022-08-17T23:39:39.394Z,99877.69
2022-08-17T23:42:10.735Z,99877.88
2022-08-17T23:44:39.886Z,99888.03
2022-08-17T23:47:07.732Z,99892.22
2022-08-17T23:49:36.116Z,99886.31
2022-08-17T23:52:06.583Z,99892.56
2022-08-17T23:54:41.574Z,99897.97
2022-08-17T23:57:09.206Z,99891.88
2022-08-17T23:59:37.148Z,99895.06
